Nearby METAR Reports

 

KTOP - Billard Municipal Airport, Topeka, Kansas, USA
Updated: 04/05/2020 3:53am
Overcast
Overcast
 Wind from N
Wind: N 3 mph , 6 km/h
Temperature: 39°F , 4°C
Dew Point: 36°F , 2°C
Humidity: 87%
Barometer: 1019 hPa
Clouds: Overcast
Visibility: 10 miles , 16 km
Cloud details: Overcast 2600 ft
2020/04/05 08:53 KTOP 050853Z AUTO 01003KT 10SM OVC026 04/02 A3009 RMK AO2 SLP193 T00440017 58002 $
KFOE - Forbes Field Airport, Topeka, Kansas, USA
Updated: 04/05/2020 3:53am
Overcast
Overcast
 Wind from calm
Wind: Calm
Temperature: 43°F , 6°C
Dew Point: 37°F , 3°C
Humidity: 81%
Barometer: 1018.6 hPa
Clouds: Overcast
Visibility: 10 miles , 16 km
Cloud details: Overcast 2200 ft
2020/04/05 08:53 KFOE 050853Z AUTO 00000KT 10SM OVC022 06/03 A3008 RMK AO2 SLP189 T00560028 58004